createdAt,value
2023-04-12T00:02:18.481Z,13.00
2023-04-12T00:07:21.316Z,14.20
2023-04-12T00:12:24.069Z,13.80
2023-04-12T00:17:28.279Z,13.20
2023-04-12T00:22:31.268Z,13.00
2023-04-12T00:27:34.057Z,13.60
2023-04-12T00:32:38.462Z,11.00
2023-04-12T00:37:41.347Z,18.60
2023-04-12T00:42:44.740Z,12.40
2023-04-12T00:47:48.906Z,12.80
2023-04-12T00:52:51.934Z,12.00
2023-04-12T00:57:54.929Z,13.00
2023-04-12T01:03:02.518Z,12.60
2023-04-12T01:08:12.031Z,15.00
2023-04-12T01:13:21.709Z,12.80
2023-04-12T01:18:28.022Z,14.00
2023-04-12T01:23:43.366Z,10.00
2023-04-12T01:28:47.605Z,11.20
2023-04-12T01:33:50.335Z,12.60
2023-04-12T01:38:53.705Z,9.00
2023-04-12T01:43:58.133Z,12.00
2023-04-12T01:49:01.218Z,9.40
2023-04-12T01:54:11.241Z,12.20
2023-04-12T01:59:16.443Z,12.80
2023-04-12T02:04:19.181Z,10.00
2023-04-12T02:09:22.601Z,10.60
2023-04-12T02:14:27.029Z,12.80
2023-04-12T02:19:30.102Z,8.60
2023-04-12T02:24:33.607Z,16.00
2023-04-12T02:29:37.753Z,9.80
2023-04-12T02:34:40.596Z,9.80
2023-04-12T02:39:51.979Z,11.00
2023-04-12T02:44:57.968Z,9.40
2023-04-12T02:50:00.887Z,11.60
2023-04-12T02:55:05.836Z,12.20
2023-04-12T03:00:13.279Z,10.80
2023-04-12T03:05:19.420Z,8.20
2023-04-12T03:10:22.376Z,9.00
2023-04-12T03:15:34.098Z,10.40
2023-04-12T03:20:39.206Z,9.00
2023-04-12T03:25:45.531Z,10.80
2023-04-12T03:31:10.557Z,10.80
2023-04-12T03:36:18.995Z,8.60
2023-04-12T03:41:27.647Z,7.80
2023-04-12T03:46:32.424Z,8.40
2023-04-12T03:51:42.655Z,11.80
2023-04-12T03:56:46.497Z,10.00
2023-04-12T04:01:58.938Z,7.40
2023-04-12T04:07:03.955Z,9.60
2023-04-12T04:12:15.024Z,8.80
2023-04-12T04:17:23.475Z,7.00
2023-04-12T04:22:26.723Z,9.00
2023-04-12T04:27:30.669Z,8.00
2023-04-12T04:32:35.552Z,7.00
2023-04-12T04:37:38.611Z,9.40
2023-04-12T04:42:42.899Z,8.00
2023-04-12T04:47:47.664Z,7.00
2023-04-12T04:52:50.893Z,5.80
2023-04-12T04:57:54.420Z,5.40
2023-04-12T05:02:58.878Z,7.20
2023-04-12T05:08:04.441Z,8.20
2023-04-12T05:13:10.681Z,7.80
2023-04-12T05:18:16.017Z,5.80
2023-04-12T05:23:18.823Z,8.20
2023-04-12T05:28:21.856Z,7.80
2023-04-12T05:33:26.579Z,9.20
2023-04-12T05:38:29.502Z,5.00
2023-04-12T05:43:37.588Z,7.80
2023-04-12T05:48:43.006Z,5.80
2023-04-12T05:53:45.803Z,7.00
2023-04-12T05:58:50.072Z,7.80
2023-04-12T06:03:54.925Z,5.80
2023-04-12T06:09:00.562Z,6.60
2023-04-12T06:14:04.517Z,7.00
2023-04-12T06:19:09.090Z,7.20
2023-04-12T06:24:11.881Z,5.80
2023-04-12T06:29:14.853Z,7.00
2023-04-12T06:34:19.539Z,6.20
2023-04-12T06:39:22.491Z,7.40
2023-04-12T06:44:26.285Z,7.00
2023-04-12T06:49:30.530Z,6.00
2023-04-12T06:54:33.269Z,6.60
2023-04-12T06:59:36.070Z,4.60
2023-04-12T07:04:40.464Z,5.00
2023-04-12T07:09:43.296Z,7.00
2023-04-12T07:14:46.034Z,5.80
2023-04-12T07:19:50.364Z,7.40
2023-04-12T07:24:53.150Z,7.20
2023-04-12T07:29:55.975Z,4.00
2023-04-12T07:35:00.428Z,2.80
2023-04-12T07:40:03.365Z,5.00
2023-04-12T07:45:06.975Z,4.60
2023-04-12T07:50:13.286Z,4.20
2023-04-12T07:55:16.156Z,2.80
2023-04-12T08:00:19.825Z,4.60
2023-04-12T08:05:24.039Z,4.60
2023-04-12T08:10:26.823Z,4.80
2023-04-12T08:15:29.719Z,2.00
2023-04-12T08:20:34.085Z,4.00
2023-04-12T08:25:36.881Z,4.20
2023-04-12T08:30:39.710Z,2.00
2023-04-12T08:35:43.807Z,6.80
2023-04-12T08:40:47.217Z,4.60
2023-04-12T08:45:50.117Z,3.20
2023-04-12T08:50:54.337Z,2.00
2023-04-12T08:55:57.088Z,4.20
2023-04-12T09:00:59.866Z,5.00
2023-04-12T09:06:05.928Z,6.20
2023-04-12T09:11:23.078Z,4.60
2023-04-12T09:16:36.019Z,5.40
2023-04-12T09:21:52.382Z,4.80
2023-04-12T09:27:03.618Z,8.00
2023-04-12T09:32:07.124Z,5.00
2023-04-12T09:37:17.750Z,6.20
2023-04-12T09:47:38.170Z,6.00
2023-04-12T09:52:42.325Z,5.00
2023-04-12T09:57:45.685Z,4.40
2023-04-12T10:02:51.236Z,4.00
2023-04-12T10:07:56.603Z,1.00
2023-04-12T10:13:00.262Z,3.20
2023-04-12T10:18:03.079Z,3.20
2023-04-12T10:23:07.351Z,4.00
2023-04-12T10:28:17.268Z,2.40
2023-04-12T10:33:20.779Z,3.20
2023-04-12T10:38:27.153Z,2.80
2023-04-12T10:43:30.134Z,3.20
2023-04-12T10:48:33.617Z,1.40
2023-04-12T10:53:37.734Z,4.00
2023-04-12T10:58:58.877Z,2.00
2023-04-12T11:04:09.311Z,3.20
2023-04-12T11:09:21.863Z,2.00
2023-04-12T11:14:28.638Z,20.20
2023-04-12T11:19:31.898Z,70.00
2023-04-12T11:24:38.551Z,102.00
2023-04-12T11:29:41.386Z,143.75
2023-04-12T11:34:46.883Z,200.50
2023-04-12T11:39:52.682Z,292.75
2023-04-12T11:45:00.289Z,415.75
2023-04-12T11:50:05.110Z,441.67
2023-04-12T11:55:11.380Z,562.50
2023-04-12T12:00:15.338Z,541.50
2023-04-12T12:05:18.372Z,547.00
2023-04-12T12:10:37.781Z,547.25
2023-04-12T12:15:46.114Z,589.20
2023-04-12T12:20:49.884Z,597.20
2023-04-12T12:26:02.970Z,504.33
2023-04-12T12:31:13.282Z,435.25
2023-04-12T12:36:19.651Z,415.75
2023-04-12T12:41:24.559Z,360.00
2023-04-12T12:46:37.386Z,357.00
2023-04-12T12:51:51.185Z,338.50
2023-04-12T12:56:55.468Z,305.25
2023-04-12T13:01:58.368Z,280.75
2023-04-12T13:07:01.294Z,292.50
2023-04-12T13:12:07.632Z,285.67
2023-04-12T13:17:11.862Z,267.67
2023-04-12T13:22:14.768Z,259.00
2023-04-12T13:27:18.969Z,256.67
2023-04-12T13:32:21.973Z,259.33
2023-04-12T13:37:25.187Z,242.33
2023-04-12T13:42:29.711Z,223.33
2023-04-12T13:47:33.746Z,240.00
2023-04-12T13:52:36.864Z,234.67
2023-04-12T13:57:41.113Z,227.33
2023-04-12T14:02:44.193Z,227.25
2023-04-12T14:07:47.966Z,214.00
2023-04-12T14:12:52.169Z,217.00
2023-04-12T14:17:56.121Z,223.25
2023-04-12T14:23:01.218Z,201.00
2023-04-12T14:28:05.657Z,208.25
2023-04-12T14:33:08.725Z,195.25
2023-04-12T14:38:12.652Z,217.00
2023-04-12T14:43:17.123Z,188.25
2023-04-12T14:48:21.092Z,189.25
2023-04-12T14:53:23.923Z,193.75
2023-04-12T14:58:29.444Z,202.00
2023-04-12T15:03:34.050Z,182.00
2023-04-12T15:08:41.635Z,197.50
2023-04-12T15:13:45.802Z,198.00
2023-04-12T15:18:50.248Z,191.75
2023-04-12T15:23:53.124Z,170.75
2023-04-12T15:28:57.240Z,188.25
2023-04-12T15:34:00.457Z,185.75
2023-04-12T15:39:04.652Z,170.75
2023-04-12T15:44:09.849Z,185.50
2023-04-12T15:49:12.764Z,185.00
2023-04-12T15:54:16.142Z,188.25
2023-04-12T15:59:20.320Z,182.50
2023-04-12T16:04:23.193Z,179.00
2023-04-12T16:09:26.424Z,187.50
2023-04-12T16:14:30.814Z,171.25
2023-04-12T16:19:33.563Z,177.00
2023-04-12T16:24:37.366Z,175.00
2023-04-12T16:29:41.573Z,155.50
2023-04-12T16:34:44.572Z,174.00
2023-04-12T16:39:47.613Z,172.25
2023-04-12T16:44:52.050Z,163.75
2023-04-12T16:49:54.888Z,171.00
2023-04-12T16:54:58.386Z,161.50
2023-04-12T17:00:04.349Z,162.75
2023-04-12T17:05:08.417Z,152.50
2023-04-12T17:10:11.360Z,151.50
2023-04-12T17:15:16.385Z,139.25
2023-04-12T17:20:19.880Z,145.00
2023-04-12T17:25:22.944Z,142.00
2023-04-12T17:30:30.929Z,132.25
2023-04-12T17:35:33.963Z,135.75
2023-04-12T17:40:37.586Z,126.50
2023-04-12T17:45:41.911Z,127.00
2023-04-12T17:50:45.723Z,127.00
2023-04-12T17:55:50.594Z,136.50
2023-04-12T18:00:54.987Z,133.50
2023-04-12T18:05:59.296Z,119.50
2023-04-12T18:11:03.965Z,128.00
2023-04-12T18:16:08.422Z,117.75
2023-04-12T18:21:11.386Z,124.50
2023-04-12T18:26:14.240Z,125.00
2023-04-12T18:31:18.921Z,120.25
2023-04-12T18:36:21.924Z,118.75
2023-04-12T18:41:24.983Z,117.25
2023-04-12T18:46:29.632Z,111.25
2023-04-12T18:51:33.812Z,116.75
2023-04-12T18:56:36.641Z,118.00
2023-04-12T19:01:41.045Z,113.50
2023-04-12T19:06:45.101Z,108.75
2023-04-12T19:11:47.999Z,108.50
2023-04-12T19:16:52.992Z,107.25
2023-04-12T19:21:55.901Z,105.75
2023-04-12T19:26:58.703Z,101.50
2023-04-12T19:32:05.366Z,102.50
2023-04-12T19:37:08.278Z,104.75
2023-04-12T19:42:11.851Z,97.75
2023-04-12T19:47:16.085Z,105.75
2023-04-12T19:52:21.785Z,101.50
2023-04-12T19:57:25.060Z,103.50
2023-04-12T20:02:29.421Z,103.25
2023-04-12T20:07:32.331Z,102.50
2023-04-12T20:12:35.266Z,101.50
2023-04-12T20:17:41.167Z,95.25
2023-04-12T20:22:45.828Z,103.00
2023-04-12T20:27:52.430Z,98.00
2023-04-12T20:32:57.207Z,97.25
2023-04-12T20:38:00.290Z,101.50
2023-04-12T20:43:03.446Z,95.25
2023-04-12T20:48:07.685Z,97.00
2023-04-12T20:53:15.033Z,93.50
2023-04-12T20:58:19.063Z,93.75
2023-04-12T21:03:23.265Z,95.50
2023-04-12T21:08:26.122Z,92.75
2023-04-12T21:13:28.973Z,89.75
2023-04-12T21:18:34.208Z,93.50
2023-04-12T21:23:37.543Z,92.50
2023-04-12T21:28:40.944Z,86.00
2023-04-12T21:33:45.058Z,85.75
2023-04-12T21:38:49.100Z,86.75
2023-04-12T21:43:52.122Z,86.50
2023-04-12T21:48:56.406Z,90.50
2023-04-12T21:53:59.293Z,83.00
2023-04-12T21:59:02.485Z,84.50
2023-04-12T22:04:07.776Z,86.25
2023-04-12T22:09:10.605Z,83.25
2023-04-12T22:14:13.755Z,85.25
2023-04-12T22:19:18.784Z,85.50
2023-04-12T22:24:21.538Z,78.33
2023-04-12T22:29:25.368Z,75.67
2023-04-12T22:34:29.578Z,84.33
2023-04-12T22:39:32.522Z,76.67
2023-04-12T22:44:38.211Z,75.00
2023-04-12T22:49:50.185Z,77.00
2023-04-12T22:54:53.049Z,74.67
2023-04-12T22:59:55.814Z,73.00
2023-04-12T23:05:00.026Z,71.33
2023-04-12T23:10:03.108Z,67.00
2023-04-12T23:15:06.668Z,71.33
2023-04-12T23:20:13.302Z,69.33
2023-04-12T23:25:16.419Z,69.00
2023-04-12T23:30:20.151Z,73.67
2023-04-12T23:35:24.306Z,69.67
2023-04-12T23:40:27.140Z,69.67
2023-04-12T23:45:29.896Z,69.67
2023-04-12T23:50:34.005Z,69.67
2023-04-12T23:55:36.885Z,69.33
